Union City, Oklahoma
Current Conditions -  °F | °C
As of 11:35 AM on Tuesday 21 Oct 2014 (Local Time) from KRQO Reporting Station
Clear Clear  
Wind Chill: 77°   Ceiling: Unl
Heat Index: 79°   Visibility: 10mi
Dew Point: 55°   Wind: 7mph
Humidity: 47%   Direction: 220°SW
Pressure: 30.1"   Gusts: NA
Location:  35.39°N, 97.94°W
Report Text: KRQO 211635Z AUTO 22006KT 10SM CLR 25/13 A3010 RMK AO2
Loading
Personal Weather Stations






























Interactive Weather Map
Tropical Storm Tracking
New forecast layout! Learn more

10-Day Weather Forecast

Advertisements
Track Severe Weather on mobile